Time;durP1;ratioP1;P1;durP2;ratioP2;P2;SDS_P1;SDS_P2;PMS_P1;PMS_P2;Temp;Humidity;BMP_temperature;BMP_pressure;BME280_temperature;BME280_humidity;BME280_pressure;Samples;Min_cycle;Max_cycle;Signal;HPM_P1;HPM_P2
2023/10/25 00:02:09;;;;;;;23.53;7.93;;;;;;;-143.21;66.27;71907.59;4981415;28;20597;-88
2023/10/25 00:04:38;;;;;;;18.73;8.23;;;;;;;-143.21;65.97;71901.66;4986712;28;20204;-87
2023/10/25 00:07:05;;;;;;;21.73;8.20;;;;;;;-143.21;66.22;71897.69;4978428;28;20209;-88
2023/10/25 00:09:32;;;;;;;25.70;8.00;;;;;;;-143.21;66.13;71891.72;4981150;28;20231;-87
2023/10/25 00:12:00;;;;;;;25.87;7.87;;;;;;;-143.21;66.30;71891.72;4987308;28;20207;-87
2023/10/25 00:14:30;;;;;;;18.97;6.53;;;;;;;-143.21;66.17;71895.69;4976565;28;20204;-87
2023/10/25 00:17:05;;;;;;;23.40;7.63;;;;;;;-143.21;66.76;71889.75;4980921;28;20204;-88
2023/10/25 00:19:32;;;;;;;19.90;7.73;;;;;;;-143.21;66.81;71897.69;4971147;28;20617;-87
2023/10/25 00:22:01;;;;;;;19.83;8.00;;;;;;;-143.21;66.75;71897.69;4991359;28;20196;-87
2023/10/25 00:24:28;;;;;;;21.17;7.67;;;;;;;-143.21;66.58;71905.63;4970738;28;20672;-88
2023/10/25 00:26:55;;;;;;;19.90;8.10;;;;;;;-143.21;66.49;71899.66;4967528;28;21025;-87
2023/10/25 00:29:24;;;;;;;22.77;8.47;;;;;;;-143.21;66.08;71891.72;4971057;28;20322;-86
2023/10/25 00:31:51;;;;;;;19.43;7.50;;;;;;;-143.21;66.57;71899.66;4973024;28;20332;-88
2023/10/25 00:34:17;;;;;;;16.03;8.27;;;;;;;-143.21;66.90;71899.66;4977246;28;20204;-86
2023/10/25 00:36:52;;;;;;;18.63;7.73;;;;;;;-143.21;66.69;71885.78;4979260;28;20235;-88
2023/10/25 00:39:28;;;;;;;18.03;6.73;;;;;;;-143.21;66.46;71883.81;4979913;28;20214;-88
2023/10/25 00:41:57;;;;;;;21.17;6.57;;;;;;;-143.21;66.57;71875.88;4983473;28;20204;-85
2023/10/25 00:44:38;;;;;;;16.50;6.90;;;;;;;-143.21;66.61;71887.78;4972977;28;20205;-86
2023/10/25 00:47:05;;;;;;;18.20;6.80;;;;;;;-143.21;66.84;71883.81;4974307;28;20691;-84
2023/10/25 00:49:36;;;;;;;19.60;6.93;;;;;;;-143.21;66.93;71897.69;4982943;28;20207;-84
2023/10/25 00:52:04;;;;;;;22.53;7.43;;;;;;;-143.21;66.47;71909.56;4981180;28;20231;-86
2023/10/25 00:54:31;;;;;;;21.47;7.17;;;;;;;-143.21;66.24;71911.56;4982905;28;20200;-86
2023/10/25 00:57:04;;;;;;;21.30;6.90;;;;;;;-143.21;66.29;71907.59;4979902;28;20204;-86
2023/10/25 00:59:32;;;;;;;18.53;6.43;;;;;;;-143.21;66.54;71907.59;4981851;28;20204;-88
2023/10/25 01:02:01;;;;;;;27.27;8.30;;;;;;;-143.21;67.16;71903.63;4983349;28;20203;-87
2023/10/25 01:04:28;;;;;;;21.67;8.07;;;;;;;-143.21;67.09;71889.75;4969272;28;20204;-87
2023/10/25 01:06:57;;;;;;;20.60;7.30;;;;;;;-143.21;67.04;71879.84;4977294;28;20347;-87
2023/10/25 01:09:24;;;;;;;24.73;7.27;;;;;;;-143.21;66.93;71869.91;4978202;28;20208;-86
2023/10/25 01:11:50;;;;;;;24.77;7.23;;;;;;;-143.21;66.58;71873.88;4978816;28;20220;-86
2023/10/25 01:14:17;;;;;;;21.33;7.73;;;;;;;-143.21;66.43;71873.88;4974693;28;20212;-86
2023/10/25 01:16:44;;;;;;;16.93;6.53;;;;;;;-143.21;66.72;71877.84;4984329;28;20207;-86
2023/10/25 01:19:12;;;;;;;14.63;6.73;;;;;;;-143.21;66.03;71862.00;4977738;28;20196;-86
2023/10/25 01:21:43;;;;;;;17.40;6.93;;;;;;;-143.21;66.38;71860.00;4986754;28;20258;-87
2023/10/25 01:24:12;;;;;;;23.63;7.20;;;;;;;-143.21;66.94;71860.00;4984624;28;20243;-87
2023/10/25 01:26:39;;;;;;;23.33;7.37;;;;;;;-143.21;66.46;71862.00;4977335;28;20208;-86
2023/10/25 01:29:05;;;;;;;19.27;7.40;;;;;;;-143.21;66.36;71863.97;4969474;28;20708;-87
2023/10/25 01:31:32;;;;;;;20.27;6.80;;;;;;;-143.21;66.68;71869.91;4976084;28;20239;-87
2023/10/25 01:33:59;;;;;;;18.87;6.90;;;;;;;-143.21;66.69;71867.94;4983425;28;20211;-88
2023/10/25 01:36:26;;;;;;;19.20;7.20;;;;;;;-143.21;66.56;71862.00;4980123;28;20219;-87
2023/10/25 01:38:53;;;;;;;20.70;7.00;;;;;;;-143.21;66.58;71869.91;4976545;28;20223;-85
2023/10/25 01:41:27;;;;;;;18.50;6.97;;;;;;;-143.21;66.53;71881.81;4976159;28;20208;-84
2023/10/25 01:44:02;;;;;;;17.73;6.80;;;;;;;-143.21;66.56;71881.81;4978573;28;20249;-84
2023/10/25 01:46:35;;;;;;;13.27;6.33;;;;;;;-143.21;66.81;71887.78;4979276;28;20199;-85
2023/10/25 01:49:09;;;;;;;19.37;7.13;;;;;;;-143.21;66.62;71885.78;4976375;28;20215;-84
2023/10/25 01:51:35;;;;;;;16.83;6.30;;;;;;;-143.21;66.53;71877.84;4979424;28;20699;-85
2023/10/25 01:54:02;;;;;;;16.90;6.47;;;;;;;-143.21;66.66;71877.84;4978079;28;20216;-84
2023/10/25 01:56:31;;;;;;;24.10;6.73;;;;;;;-143.21;66.44;71883.81;4976191;28;20219;-84
2023/10/25 01:58:57;;;;;;;14.10;6.30;;;;;;;-143.21;66.13;71877.84;4976359;28;20211;-86
2023/10/25 02:01:24;;;;;;;22.30;6.97;;;;;;;-143.21;66.14;71883.81;4976348;28;20223;-85
2023/10/25 02:03:51;;;;;;;21.10;6.93;;;;;;;-143.21;66.01;71883.81;4968530;28;20205;-85
2023/10/25 02:06:18;;;;;;;19.57;6.47;;;;;;;-143.21;65.56;71875.88;4977163;28;20204;-85
2023/10/25 02:08:45;;;;;;;18.10;6.70;;;;;;;-143.21;65.11;71858.03;4975462;28;20667;-86
2023/10/25 02:11:12;;;;;;;23.30;6.73;;;;;;;-143.21;65.30;71858.03;4971242;28;20217;-86
2023/10/25 02:13:40;;;;;;;21.77;6.67;;;;;;;-143.21;65.68;71865.97;4979506;28;20230;-85
2023/10/25 02:16:15;;;;;;;22.23;6.97;;;;;;;-143.21;65.64;71867.94;4977657;28;21267;-86
2023/10/25 02:18:42;;;;;;;20.70;6.73;;;;;;;-143.21;66.03;71869.91;4977066;28;20204;-86
2023/10/25 02:21:17;;;;;;;17.27;7.13;;;;;;;-143.21;65.98;71863.97;4982730;28;20252;-85
2023/10/25 02:23:44;;;;;;;18.77;7.43;;;;;;;-143.21;66.17;71863.97;4979011;28;20287;-85
2023/10/25 02:26:11;;;;;;;19.40;7.37;;;;;;;-143.21;66.40;71875.88;4974320;28;20686;-86
2023/10/25 02:28:37;;;;;;;20.00;7.40;;;;;;;-143.21;66.27;71869.91;4976018;28;20898;-85
2023/10/25 02:31:06;;;;;;;21.97;7.40;;;;;;;-143.21;66.90;71875.88;4982185;28;20225;-85
2023/10/25 02:33:33;;;;;;;16.03;6.73;;;;;;;-143.21;66.66;71863.97;4972965;28;20220;-85
2023/10/25 02:36:00;;;;;;;14.90;6.60;;;;;;;-143.21;66.90;71858.03;4968891;28;20200;-85
2023/10/25 02:38:26;;;;;;;18.53;6.87;;;;;;;-143.21;67.27;71858.03;4979633;28;20216;-85
2023/10/25 02:40:53;;;;;;;24.70;6.17;;;;;;;-143.21;66.93;71838.19;4977551;28;20200;-85
2023/10/25 02:43:20;;;;;;;17.43;6.53;;;;;;;-143.21;67.02;71834.22;4976018;28;20208;-86
2023/10/25 02:45:49;;;;;;;19.47;6.70;;;;;;;-143.21;66.83;71812.41;4980526;28;20193;-86
2023/10/25 02:48:18;;;;;;;18.83;5.57;;;;;;;-143.21;67.27;71798.53;4979426;28;20212;-87
2023/10/25 02:50:45;;;;;;;17.73;7.00;;;;;;;-143.21;66.69;71804.47;4979996;28;20223;-85
2023/10/25 02:53:12;;;;;;;22.07;6.63;;;;;;;-143.21;66.67;71802.50;4978748;28;20217;-87
2023/10/25 02:55:39;;;;;;;26.13;7.43;;;;;;;-143.21;66.63;71790.59;4985680;28;20597;-87
2023/10/25 02:58:06;;;;;;;16.90;6.53;;;;;;;-143.21;66.95;71790.59;4960816;28;20263;-86
2023/10/25 03:00:34;;;;;;;18.87;6.03;;;;;;;-143.21;67.01;71786.63;4977880;28;20224;-86
2023/10/25 03:03:04;;;;;;;16.90;6.50;;;;;;;-143.21;66.74;71784.66;4975803;28;20208;-87
2023/10/25 03:05:32;;;;;;;22.80;7.10;;;;;;;-143.21;66.62;71770.78;4975191;28;20207;-87
2023/10/25 03:07:59;;;;;;;21.57;7.50;;;;;;;-143.21;66.45;71770.78;4984597;28;20212;-87
2023/10/25 03:10:34;;;;;;;23.20;6.27;;;;;;;-143.21;66.45;71766.81;4976788;28;20232;-88
2023/10/25 03:13:01;;;;;;;19.60;6.90;;;;;;;-143.21;66.54;71750.94;4971836;28;20288;-86
2023/10/25 03:15:28;;;;;;;26.40;7.53;;;;;;;-143.21;66.29;71741.03;4971194;28;20204;-86
2023/10/25 03:17:58;;;;;;;25.30;6.63;;;;;;;-143.21;66.01;71772.75;4984616;28;21265;-86
2023/10/25 03:20:25;;;;;;;23.23;6.40;;;;;;;-143.21;65.71;71762.84;4987756;28;20264;-85
2023/10/25 03:23:03;;;;;;;15.17;6.27;;;;;;;-143.21;66.08;71750.94;4982007;28;21624;-85
2023/10/25 03:25:29;;;;;;;21.07;7.03;;;;;;;-143.21;65.98;71746.97;4983412;28;20208;-87
2023/10/25 03:27:56;;;;;;;20.23;6.87;;;;;;;-143.21;65.94;71745.00;4984102;28;20671;-86
2023/10/25 03:30:23;;;;;;;24.00;7.50;;;;;;;-143.21;65.67;71741.03;4972967;28;20746;-85
2023/10/25 03:32:50;;;;;;;19.13;7.03;;;;;;;-143.21;65.38;71725.16;4977285;28;20216;-84
2023/10/25 03:35:17;;;;;;;25.60;7.33;;;;;;;-143.21;65.82;71746.97;4967347;28;20213;-86
2023/10/25 03:40:29;;;;;;;20.73;7.30;;;;;;;-143.21;65.83;71731.13;4979155;28;20211;-85
2023/10/25 03:42:56;;;;;;;23.97;8.10;;;;;;;-143.21;65.93;71733.09;4983721;28;20290;-86
2023/10/25 03:45:22;;;;;;;22.83;7.70;;;;;;;-143.21;65.68;71731.13;4971430;28;20270;-85
2023/10/25 03:47:49;;;;;;;21.00;8.00;;;;;;;-143.21;65.26;71715.25;4984469;28;20235;-84
2023/10/25 03:50:16;;;;;;;28.33;8.47;;;;;;;-143.21;65.46;71711.28;4982141;28;20675;-84
2023/10/25 03:52:46;;;;;;;28.93;7.50;;;;;;;-143.21;65.59;71752.94;4981252;28;20238;-85
2023/10/25 03:55:14;;;;;;;19.47;8.17;;;;;;;-143.21;65.51;71735.09;4975145;28;20204;-86
2023/10/25 03:57:42;;;;;;;29.83;9.33;;;;;;;-143.21;65.46;71721.22;4981377;28;20213;-86
2023/10/25 04:00:29;;;;;;;21.30;8.20;;;;;;;-143.21;65.59;71721.22;4974492;28;20201;-87
2023/10/25 04:02:57;;;;;;;26.13;8.57;;;;;;;-143.21;65.20;71727.16;4983815;28;20199;-87
2023/10/25 04:05:25;;;;;;;22.17;8.13;;;;;;;-143.21;65.23;71713.28;4974157;28;20192;-86
2023/10/25 04:07:52;;;;;;;20.67;8.63;;;;;;;-143.21;65.68;71735.09;4977706;28;20210;-86
2023/10/25 04:10:19;;;;;;;26.33;8.67;;;;;;;-143.21;65.47;71733.09;4978185;28;20279;-87
2023/10/25 04:13:06;;;;;;;24.87;8.43;;;;;;;-143.21;65.51;71735.09;4984335;28;20577;-87
2023/10/25 04:15:35;;;;;;;27.47;9.20;;;;;;;-143.21;65.15;71721.22;4976297;28;20677;-87
2023/10/25 04:18:02;;;;;;;23.30;7.87;;;;;;;-143.21;65.67;71737.06;4978147;28;20203;-86
2023/10/25 04:21:12;;;;;;;31.70;9.00;;;;;;;-143.21;66.04;71739.06;4981455;28;20208;-87
2023/10/25 04:23:39;;;;;;;22.10;8.60;;;;;;;-143.21;65.96;71729.13;4976087;28;20215;-86
2023/10/25 04:26:15;;;;;;;26.13;8.70;;;;;;;-143.21;65.86;71741.03;4979674;28;20200;-86
2023/10/25 04:28:45;;;;;;;32.60;9.23;;;;;;;-143.21;64.84;71711.28;4974694;28;20237;-86
2023/10/25 04:31:31;;;;;;;25.57;9.13;;;;;;;-143.21;64.93;71713.28;4984700;28;20224;-86
2023/10/25 04:33:59;;;;;;;28.40;9.80;;;;;;;-143.21;64.66;71707.31;4969236;28;20213;-85
2023/10/25 04:36:26;;;;;;;31.77;9.37;;;;;;;-143.21;64.80;71703.34;4975949;28;20295;-83
2023/10/25 04:38:53;;;;;;;28.47;9.97;;;;;;;-143.21;64.97;71715.25;4969250;28;21032;-84
2023/10/25 04:41:22;;;;;;;30.73;9.73;;;;;;;-143.21;64.98;71697.41;4972112;28;20244;-84
2023/10/25 04:43:51;;;;;;;36.10;10.53;;;;;;;-143.21;64.91;71693.44;4987809;28;20200;-82
2023/10/25 04:46:19;;;;;;;33.50;10.33;;;;;;;-143.21;65.05;71681.56;4981011;28;20204;-83
2023/10/25 04:48:46;;;;;;;27.73;9.27;;;;;;;-143.21;64.58;71667.66;4989506;28;20291;-82
2023/10/25 04:51:14;;;;;;;29.70;9.73;;;;;;;-143.21;65.02;71677.59;4980448;28;20224;-84
2023/10/25 04:53:41;;;;;;;30.37;9.77;;;;;;;-143.21;64.91;71673.63;4975124;28;20204;-84
2023/10/25 04:56:08;;;;;;;35.93;10.57;;;;;;;-143.21;64.70;71669.66;4976734;28;20196;-83
2023/10/25 04:58:35;;;;;;;26.13;9.70;;;;;;;-143.21;65.24;71685.50;4979397;28;20204;-82
2023/10/25 05:01:12;;;;;;;30.37;9.73;;;;;;;-143.21;65.01;71681.56;4969292;28;20213;-83
2023/10/25 05:03:39;;;;;;;27.03;9.33;;;;;;;-143.21;65.16;71661.72;4967261;28;20195;-83
2023/10/25 05:06:07;;;;;;;28.53;10.13;;;;;;;-143.21;65.14;71669.66;4972521;28;20751;-83
2023/10/25 05:08:35;;;;;;;28.00;9.83;;;;;;;-143.21;65.38;71665.69;4982037;28;20207;-84
2023/10/25 05:11:36;;;;;;;30.63;10.37;;;;;;;-143.21;65.49;71663.72;4973358;28;20224;-85
2023/10/25 05:14:04;;;;;;;35.63;9.80;;;;;;;-143.21;65.18;71669.66;4970481;28;20212;-85
2023/10/25 05:16:33;;;;;;;36.47;9.87;;;;;;;-143.21;64.59;71655.78;4976831;28;20603;-83
2023/10/25 05:19:00;;;;;;;29.43;10.23;;;;;;;-143.21;64.68;71663.72;4979137;28;20613;-83
2023/10/25 05:21:29;;;;;;;34.23;13.60;;;;;;;-143.21;64.92;71663.72;4972018;28;20208;-84
2023/10/25 05:23:57;;;;;;;40.27;15.03;;;;;;;-143.21;64.71;71665.69;4973347;28;20203;-83
2023/10/25 05:26:24;;;;;;;39.70;14.50;;;;;;;-143.21;65.11;71669.66;4976084;28;20204;-82
2023/10/25 05:28:51;;;;;;;36.00;13.43;;;;;;;-143.21;65.01;71671.63;4982136;28;20240;-82
2023/10/25 05:31:28;;;;;;;36.63;13.37;;;;;;;-143.21;64.87;71661.72;4975239;28;20718;-85
2023/10/25 05:34:16;;;;;;;42.97;13.27;;;;;;;-143.21;64.99;71659.75;4975509;28;21220;-86
2023/10/25 05:36:44;;;;;;;45.13;13.83;;;;;;;-143.21;64.96;71663.72;4971420;28;20673;-86
2023/10/25 05:39:12;;;;;;;34.77;12.90;;;;;;;-143.21;65.25;71665.69;4978503;28;20247;-86
2023/10/25 05:41:41;;;;;;;49.97;26.50;;;;;;;-143.21;65.39;71665.69;4972741;28;20666;-86
2023/10/25 05:44:11;;;;;;;33.33;12.30;;;;;;;-143.21;65.33;71649.81;4980307;28;20680;-86
2023/10/25 05:46:38;;;;;;;48.13;11.73;;;;;;;-143.21;65.20;71649.81;4978305;28;20203;-86
2023/10/25 05:49:05;;;;;;;38.37;11.50;;;;;;;-143.21;65.41;71649.81;4975823;28;20216;-86
2023/10/25 05:51:35;;;;;;;33.87;11.70;;;;;;;-143.21;65.53;71655.78;4983145;28;20299;-84
2023/10/25 05:54:03;;;;;;;45.00;12.67;;;;;;;-143.21;65.18;71653.78;4975557;28;20196;-86
2023/10/25 05:56:30;;;;;;;38.80;11.83;;;;;;;-143.21;64.94;71643.88;4975667;28;20216;-85
2023/10/25 05:58:58;;;;;;;36.43;12.13;;;;;;;-143.21;65.20;71635.94;4979778;28;20216;-85
2023/10/25 06:01:34;;;;;;;37.10;11.67;;;;;;;-143.21;65.59;71655.78;4978661;28;20204;-85
2023/10/25 06:04:05;;;;;;;34.80;12.57;;;;;;;-143.21;65.52;71665.69;4975414;28;20208;-85
2023/10/25 06:06:34;;;;;;;33.80;11.80;;;;;;;-143.21;65.50;71657.75;4965745;28;20668;-85
2023/10/25 06:09:02;;;;;;;31.40;11.30;;;;;;;-143.21;65.35;71637.94;4980340;28;20211;-85
2023/10/25 06:11:29;;;;;;;41.37;11.70;;;;;;;-143.21;65.24;71628.00;4968750;28;20623;-86
2023/10/25 06:13:56;;;;;;;40.87;12.17;;;;;;;-143.21;64.89;71614.13;4972723;28;20217;-86
2023/10/25 06:16:23;;;;;;;42.60;12.33;;;;;;;-143.21;64.41;71612.16;4981816;28;20221;-85
2023/10/25 06:18:50;;;;;;;38.90;11.83;;;;;;;-143.21;64.35;71602.25;4985072;28;20204;-85
2023/10/25 06:21:17;;;;;;;34.03;12.40;;;;;;;-143.21;64.25;71598.28;4976867;28;20214;-86
2023/10/25 06:23:45;;;;;;;31.03;12.07;;;;;;;-143.21;64.25;71598.28;4974284;28;20219;-86
2023/10/25 06:26:12;;;;;;;41.43;12.10;;;;;;;-143.21;63.63;71586.38;4977935;28;20594;-85
2023/10/25 06:28:39;;;;;;;28.47;12.40;;;;;;;-143.21;63.70;71574.47;4976242;28;20232;-86
2023/10/25 06:31:06;;;;;;;39.50;12.87;;;;;;;-143.21;63.34;71560.59;4970248;28;20204;-85
2023/10/25 06:33:33;;;;;;;35.60;13.13;;;;;;;-143.21;62.98;71556.63;4974943;28;20207;-85
2023/10/25 06:36:01;;;;;;;39.80;13.67;;;;;;;-143.21;62.85;71554.66;4967294;28;20208;-85
2023/10/25 06:38:28;;;;;;;42.87;13.50;;;;;;;-143.21;62.35;71546.72;4975123;28;20197;-85
2023/10/25 06:40:57;;;;;;;49.80;14.23;;;;;;;-143.21;62.52;71542.75;4963455;28;20200;-83
2023/10/25 06:43:24;;;;;;;35.30;13.27;;;;;;;-143.21;62.22;71550.69;4982376;28;20242;-83
2023/10/25 06:45:53;;;;;;;48.67;13.43;;;;;;;-143.21;62.20;71530.88;4981206;28;20200;-83
2023/10/25 06:48:20;;;;;;;30.70;11.47;;;;;;;-143.21;62.04;71548.72;4981392;28;20205;-83
2023/10/25 06:50:48;;;;;;;30.20;11.20;;;;;;;-143.21;61.98;71534.81;4985287;28;20211;-83
2023/10/25 06:53:15;;;;;;;38.77;12.03;;;;;;;-143.21;61.78;71518.97;4974636;28;20224;-84
2023/10/25 06:55:46;;;;;;;31.17;12.00;;;;;;;-143.21;61.73;71520.94;4983455;28;20687;-85
2023/10/25 06:58:15;;;;;;;37.73;12.17;;;;;;;-143.21;61.18;71509.06;4976934;28;20196;-83
2023/10/25 07:00:42;;;;;;;33.10;11.53;;;;;;;-143.21;61.06;71513.03;4975373;28;20212;-83
2023/10/25 07:03:11;;;;;;;51.07;12.40;;;;;;;-143.21;60.82;71509.06;4984912;28;20204;-84
2023/10/25 07:05:42;;;;;;;36.43;10.13;;;;;;;-143.21;60.57;71493.19;4977412;28;20209;-84
2023/10/25 07:08:10;;;;;;;27.90;11.23;;;;;;;-143.21;60.26;71487.25;4975850;28;20204;-85
2023/10/25 07:10:37;;;;;;;48.97;12.00;;;;;;;-143.21;60.12;71483.28;4985288;28;20254;-84
2023/10/25 07:13:04;;;;;;;43.07;11.30;;;;;;;-143.21;59.73;71475.34;4985500;28;20223;-86
2023/10/25 07:15:35;;;;;;;34.60;11.43;;;;;;;-143.21;59.79;71477.34;4978560;28;20208;-85
2023/10/25 07:18:08;;;;;;;43.80;11.53;;;;;;;-143.21;59.84;71467.41;4974894;28;20754;-85
2023/10/25 07:20:34;;;;;;;46.77;12.03;;;;;;;-143.21;59.60;71461.47;4979535;28;20206;-85
2023/10/25 07:23:02;;;;;;;44.73;12.67;;;;;;;-143.21;59.46;71459.47;4977729;28;20227;-84
2023/10/25 07:25:29;;;;;;;39.10;12.23;;;;;;;-143.21;59.18;71457.50;4972236;28;20216;-85
2023/10/25 07:27:56;;;;;;;42.53;12.23;;;;;;;-143.21;58.99;71457.50;4983718;28;20240;-86
2023/10/25 07:30:25;;;;;;;39.58;12.18;;;;;;;-143.21;59.02;71449.56;4981968;28;20216;-85
2023/10/25 07:32:53;;;;;;;43.67;12.93;;;;;;;-143.21;58.69;71443.63;4979966;28;20236;-85
2023/10/25 07:35:32;;;;;;;37.23;11.97;;;;;;;-143.21;58.13;71429.75;4982500;28;20216;-85
2023/10/25 07:37:59;;;;;;;40.20;11.23;;;;;;;-143.21;58.03;71425.78;4974650;28;20627;-83
2023/10/25 07:40:28;;;;;;;42.33;12.68;;;;;;;-143.21;57.94;71425.78;4976181;28;20594;-83
2023/10/25 07:43:39;;;;;;;39.23;11.80;;;;;;;-143.21;57.86;71435.69;4984942;28;20196;-88
2023/10/25 07:46:07;;;;;;;29.50;9.97;;;;;;;-143.21;57.61;71433.72;4966610;28;20220;-89
2023/10/25 07:48:36;;;;;;;34.63;10.52;;;;;;;-143.21;57.84;71431.72;4987419;28;20208;-89
2023/10/25 07:51:04;;;;;;;37.83;10.80;;;;;;;-143.21;57.73;71421.81;4983274;28;20235;-85
2023/10/25 07:53:32;;;;;;;30.10;10.70;;;;;;;-143.21;57.67;71415.88;4981925;28;20298;-88
2023/10/25 07:56:02;;;;;;;37.10;10.80;;;;;;;-143.21;57.01;71415.88;4973796;28;20210;-88
2023/10/25 07:58:29;;;;;;;36.80;11.57;;;;;;;-143.21;56.75;71411.91;4968871;28;20220;-85
2023/10/25 08:00:56;;;;;;;37.25;12.23;;;;;;;-143.21;57.11;71398.03;4970705;28;20201;-85
2023/10/25 08:03:24;;;;;;;38.65;12.52;;;;;;;-143.21;56.08;71394.06;4982637;28;20212;-84
2023/10/25 08:05:52;;;;;;;41.33;11.98;;;;;;;-143.21;55.64;71388.09;4970552;28;20304;-86
2023/10/25 08:08:25;;;;;;;46.42;12.10;;;;;;;-143.21;55.69;71386.13;4978369;28;20204;-87
2023/10/25 08:11:01;;;;;;;46.00;12.50;;;;;;;-143.21;56.16;71394.06;4984029;28;20200;-87
2023/10/25 08:13:27;;;;;;;40.90;11.48;;;;;;;-143.21;55.90;71390.09;4974673;28;20625;-86
2023/10/25 08:15:57;;;;;;;37.38;10.85;;;;;;;-143.21;55.15;71380.19;4985757;28;20221;-87
2023/10/25 08:18:24;;;;;;;40.97;11.65;;;;;;;-143.21;54.93;71380.19;4987948;28;20210;-89
2023/10/25 08:20:53;;;;;;;40.85;11.45;;;;;;;-143.21;54.79;71382.16;4984272;28;20219;-91
2023/10/25 08:23:34;;;;;;;41.58;11.43;;;;;;;-143.21;54.55;71370.28;4985521;28;20221;-90
2023/10/25 08:26:04;;;;;;;35.13;11.23;;;;;;;-143.21;54.94;71372.25;4975566;28;20262;-91
2023/10/25 08:28:31;;;;;;;38.25;10.50;;;;;;;-143.21;54.90;71380.19;4974550;28;20619;-89
2023/10/25 08:31:14;;;;;;;33.10;10.43;;;;;;;-143.21;55.08;71370.28;4980424;28;20564;-88
2023/10/25 08:33:42;;;;;;;39.47;9.45;;;;;;;-143.21;54.77;71362.34;4979640;28;20335;-89
2023/10/25 08:36:13;;;;;;;31.85;9.40;;;;;;;-143.21;54.09;71350.44;4982266;28;20667;-88
2023/10/25 08:38:43;;;;;;;35.75;8.88;;;;;;;-143.21;53.88;71338.53;4973065;28;20213;-90
2023/10/25 08:41:52;;;;;;;40.10;9.15;;;;;;;-143.21;53.13;71320.69;4984447;28;20201;-89
2023/10/25 08:44:19;;;;;;;41.78;9.65;;;;;;;-143.21;52.93;71304.84;4983879;28;20205;-87
2023/10/25 08:46:48;;;;;;;40.42;8.68;;;;;;;-143.21;53.48;71298.91;4975477;28;20642;-88
2023/10/25 08:49:15;;;;;;;41.28;9.13;;;;;;;-143.21;53.39;71285.03;4978330;28;20204;-88
2023/10/25 08:51:46;;;;;;;37.13;8.57;;;;;;;-143.21;53.15;71275.09;4965513;28;20271;-89
2023/10/25 08:54:25;;;;;;;35.80;8.25;;;;;;;-143.21;52.02;71269.16;4954217;29;20233;-88
2023/10/25 08:56:52;;;;;;;35.08;8.07;;;;;;;-143.21;51.61;71257.25;4954199;28;20209;-88
2023/10/25 08:59:19;;;;;;;34.97;9.00;;;;;;;-143.21;51.65;71245.38;4954567;29;20587;-90
2023/10/25 09:01:46;;;;;;;37.63;8.57;;;;;;;-143.21;51.81;71225.53;4954500;29;20193;-90
2023/10/25 09:04:12;;;;;;;41.42;8.07;;;;;;;-143.21;51.53;71225.53;4955195;29;20769;-90
2023/10/25 09:06:40;;;;;;;36.75;8.05;;;;;;;-143.21;50.93;71213.66;4954484;28;20578;-88
2023/10/25 09:09:10;;;;;;;34.08;7.78;;;;;;;-143.21;50.93;71205.72;4955753;28;20202;-89
2023/10/25 09:11:41;;;;;;;47.45;8.43;;;;;;;-143.21;50.46;71183.91;4953401;29;20635;-83
2023/10/25 09:14:10;;;;;;;34.67;8.23;;;;;;;-143.21;48.79;71160.13;4953842;28;20225;-83
2023/10/25 09:16:47;;;;;;;36.55;8.32;;;;;;;-143.21;48.62;71146.25;4953934;28;20212;-84
2023/10/25 09:19:20;;;;;;;51.17;9.15;;;;;;;-143.21;48.03;71112.53;4953980;29;20192;-84
2023/10/25 09:21:55;;;;;;;43.38;9.45;;;;;;;-143.21;47.58;71076.84;4954044;29;20201;-84
2023/10/25 09:24:47;;;;;;;34.78;7.60;;;;;;;-143.21;45.76;71027.28;4954417;29;20209;-84
2023/10/25 09:27:14;;;;;;;43.13;8.70;;;;;;;-143.21;45.45;70991.63;4953519;28;20205;-84
2023/10/25 09:29:41;;;;;;;33.00;8.77;;;;;;;-143.21;44.95;70971.78;4953451;29;20244;-85
2023/10/25 09:32:08;;;;;;;43.17;8.10;;;;;;;-143.21;43.01;70932.13;4953049;28;20206;-86
2023/10/25 09:34:36;;;;;;;45.95;7.35;;;;;;;-143.21;41.37;70892.50;4953271;29;20200;-86
2023/10/25 09:37:04;;;;;;;46.78;7.40;;;;;;;-143.21;40.45;70838.97;4953555;28;20202;-83
2023/10/25 09:39:35;;;;;;;46.28;7.63;;;;;;;-143.21;39.65;70803.28;4953605;29;20699;-85
2023/10/25 09:42:09;;;;;;;53.53;7.78;;;;;;;-143.21;39.01;70773.56;4953656;29;20197;-84
2023/10/25 09:44:45;;;;;;;51.50;8.43;;;;;;;-143.21;38.85;70743.81;4953827;29;20200;-86
2023/10/25 09:47:15;;;;;;;52.17;7.80;;;;;;;-143.21;38.27;70702.19;4953874;29;20200;-87
2023/10/25 09:49:43;;;;;;;50.72;7.03;;;;;;;-143.21;37.37;70660.56;4953220;29;20197;-84
2023/10/25 09:52:18;;;;;;;51.10;6.95;;;;;;;-143.21;37.03;70618.94;4953147;28;20775;-83
2023/10/25 09:54:52;;;;;;;59.58;7.20;;;;;;;-143.21;36.55;70611.00;4953225;28;20635;-84
2023/10/25 09:57:19;;;;;;;53.17;7.78;;;;;;;-143.21;36.08;70567.41;4953237;29;20272;-85
2023/10/25 09:59:53;;;;;;;53.65;7.95;;;;;;;-143.21;35.64;70557.50;4953505;29;20569;-85
2023/10/25 10:02:32;;;;;;;54.90;7.78;;;;;;;-143.21;36.26;70543.63;4953527;29;20200;-84
2023/10/25 10:05:09;;;;;;;46.55;7.15;;;;;;;-143.21;35.92;70567.41;4953332;29;20193;-84
2023/10/25 10:07:41;;;;;;;52.38;8.38;;;;;;;-143.21;36.16;70589.22;4953364;29;20636;-84
2023/10/25 10:10:19;;;;;;;62.13;9.70;;;;;;;-143.21;36.43;70593.19;4953003;29;20668;-84
2023/10/25 10:12:46;;;;;;;55.03;8.15;;;;;;;-143.21;36.61;70609.03;4953155;29;20717;-85
2023/10/25 10:15:14;;;;;;;41.72;7.28;;;;;;;-143.21;36.74;70599.13;4953604;29;20209;-83
2023/10/25 10:17:45;;;;;;;50.40;8.02;;;;;;;-143.21;36.76;70614.97;4953401;28;20193;-83
2023/10/25 10:20:24;;;;;;;51.30;7.60;;;;;;;-143.21;36.80;70599.13;4956965;28;20217;-84
2023/10/25 10:23:16;;;;;;;57.58;7.43;;;;;;;-143.21;36.77;70597.13;4957106;29;20197;-84
2023/10/25 10:25:46;;;;;;;40.20;6.70;;;;;;;-143.21;36.54;70577.31;4956900;29;20219;-84
2023/10/25 10:28:16;;;;;;;42.42;7.72;;;;;;;-143.21;36.40;70559.47;4966607;28;20291;-83
2023/10/25 10:30:43;;;;;;;63.42;8.95;;;;;;;-143.21;36.25;70527.75;4976315;28;20193;-84
2023/10/25 10:33:13;;;;;;;51.28;7.45;;;;;;;-143.21;35.92;70494.06;4975912;28;20224;-83
2023/10/25 10:35:46;;;;;;;50.75;7.10;;;;;;;-143.21;35.08;70428.66;4975873;28;20192;-83
2023/10/25 10:38:15;;;;;;;47.97;7.38;;;;;;;-143.21;34.35;70373.16;4975759;28;20212;-84
2023/10/25 10:40:43;;;;;;;54.50;7.28;;;;;;;-143.21;34.39;70369.19;4956371;28;20193;-83
2023/10/25 10:43:10;;;;;;;51.67;7.82;;;;;;;-143.21;34.42;70369.19;4956850;28;20583;-84
2023/10/25 10:45:44;;;;;;;52.17;7.35;;;;;;;-143.21;34.77;70404.88;4956860;29;20198;-83
2023/10/25 10:48:20;;;;;;;54.42;7.55;;;;;;;-143.21;35.58;70440.56;4956516;28;20197;-83
2023/10/25 10:50:49;;;;;;;48.33;7.72;;;;;;;-143.21;35.62;70464.34;4956407;29;20216;-83
2023/10/25 10:53:15;;;;;;;62.22;8.20;;;;;;;-143.21;35.95;70511.91;4956232;28;20784;-85
2023/10/25 10:55:45;;;;;;;66.68;8.93;;;;;;;-143.21;36.35;70547.59;4956834;29;20197;-85
2023/10/25 10:58:12;;;;;;;53.92;8.18;;;;;;;-143.21;36.76;70573.34;4956042;28;20193;-85
2023/10/25 11:00:44;;;;;;;60.05;8.40;;;;;;;-143.21;37.25;70581.28;4955348;28;20201;-85
2023/10/25 11:03:11;;;;;;;50.33;7.68;;;;;;;-143.21;37.45;70595.16;4956087;28;20201;-85
2023/10/25 11:05:38;;;;;;;54.00;8.27;;;;;;;-143.21;37.74;70632.81;4955927;29;20202;-85
2023/10/25 11:08:13;;;;;;;57.80;8.85;;;;;;;-143.21;38.29;70644.72;4956227;28;20205;-85
2023/10/25 11:10:40;;;;;;;60.08;8.20;;;;;;;-143.21;38.59;70672.47;4955939;28;20193;-86
2023/10/25 11:13:10;;;;;;;75.75;8.65;;;;;;;-143.21;38.72;70676.44;4956199;29;20221;-86
2023/10/25 11:15:39;;;;;;;49.92;7.95;;;;;;;-143.21;38.82;70690.31;4956579;28;20205;-85
2023/10/25 11:18:07;;;;;;;53.03;7.72;;;;;;;-143.21;38.86;70698.22;4956376;29;20201;-87
2023/10/25 11:20:34;;;;;;;56.03;6.78;;;;;;;-143.21;39.25;70700.22;4956481;29;20201;-86
2023/10/25 11:23:03;;;;;;;65.40;8.23;;;;;;;-143.21;38.97;70698.22;4955704;28;20557;-86